createdAt,value
2024-05-09T00:00:38.930Z,3.90
2024-05-09T00:01:37.408Z,3.30
2024-05-09T00:02:41.624Z,3.70
2024-05-09T00:03:45.619Z,3.80
2024-05-09T00:04:49.958Z,3.70
2024-05-09T00:05:54.424Z,3.90
2024-05-09T00:06:59.740Z,4.00
2024-05-09T00:08:03.887Z,3.30
2024-05-09T00:09:08.377Z,3.20
2024-05-09T00:10:22.258Z,3.70
2024-05-09T00:11:17.181Z,3.50
2024-05-09T00:12:21.376Z,3.50
2024-05-09T00:13:25.490Z,3.60
2024-05-09T00:14:30.060Z,3.60
2024-05-09T00:15:35.227Z,3.20
2024-05-09T00:16:38.702Z,3.80
2024-05-09T00:17:42.999Z,3.90
2024-05-09T00:18:47.150Z,3.30
2024-05-09T00:19:51.709Z,3.50
2024-05-09T00:20:56.296Z,3.50
2024-05-09T00:22:00.058Z,3.50
2024-05-09T00:23:04.385Z,3.60
2024-05-09T00:24:08.714Z,3.80
2024-05-09T00:25:13.286Z,4.50
2024-05-09T00:26:17.708Z,4.40
2024-05-09T00:27:21.923Z,4.80
2024-05-09T00:28:26.549Z,4.10
2024-05-09T00:29:30.724Z,4.50
2024-05-09T00:30:36.946Z,4.50
2024-05-09T00:31:39.336Z,4.40
2024-05-09T00:32:43.904Z,4.20
2024-05-09T00:33:48.169Z,4.10
2024-05-09T00:34:52.123Z,4.30
2024-05-09T00:35:56.407Z,4.00
2024-05-09T00:37:02.261Z,4.20
2024-05-09T00:38:06.923Z,4.50
2024-05-09T00:39:10.643Z,4.30
2024-05-09T00:40:22.483Z,4.10
2024-05-09T00:41:19.900Z,4.50
2024-05-09T00:42:23.631Z,4.30
2024-05-09T00:43:27.710Z,4.30
2024-05-09T00:44:32.350Z,3.90
2024-05-09T00:45:36.678Z,3.70
2024-05-09T00:46:41.251Z,3.80
2024-05-09T00:47:45.700Z,3.60
2024-05-09T00:48:49.798Z,3.50
2024-05-09T00:49:53.888Z,3.60
2024-05-09T00:50:58.176Z,4.00
2024-05-09T00:52:02.747Z,4.30
2024-05-09T00:53:07.087Z,4.40
2024-05-09T00:54:11.443Z,3.90
2024-05-09T00:55:15.791Z,3.80
2024-05-09T00:56:20.407Z,4.30
2024-05-09T00:57:24.183Z,4.60
2024-05-09T00:58:28.496Z,4.30
2024-05-09T00:59:33.149Z,3.60
2024-05-09T01:00:39.845Z,3.80
2024-05-09T01:01:41.998Z,4.20
2024-05-09T01:02:46.183Z,4.10
2024-05-09T01:03:51.295Z,4.00
2024-05-09T01:04:54.853Z,3.90
2024-05-09T01:05:59.367Z,3.80
2024-05-09T01:07:04.690Z,3.80
2024-05-09T01:08:09.136Z,4.10
2024-05-09T01:09:13.072Z,4.70
2024-05-09T01:10:23.874Z,5.00
2024-05-09T01:11:21.567Z,4.60
2024-05-09T01:12:26.133Z,4.90
2024-05-09T01:13:30.463Z,4.90
2024-05-09T01:14:35.030Z,4.90
2024-05-09T01:15:38.795Z,5.10
2024-05-09T01:16:43.473Z,4.90
2024-05-09T01:17:47.752Z,5.40
2024-05-09T01:18:52.306Z,5.10
2024-05-09T01:19:56.191Z,4.60
2024-05-09T01:21:00.521Z,5.10
2024-05-09T01:22:05.040Z,4.70
2024-05-09T01:23:10.170Z,5.40
2024-05-09T01:24:13.448Z,5.20
2024-05-09T01:25:18.050Z,5.00
2024-05-09T01:26:22.189Z,5.10
2024-05-09T01:27:26.752Z,5.20
2024-05-09T01:28:30.812Z,4.80
2024-05-09T01:29:35.452Z,5.10
2024-05-09T01:30:40.030Z,5.20
2024-05-09T01:31:44.200Z,4.30
2024-05-09T01:32:48.811Z,4.10
2024-05-09T01:33:52.868Z,4.60
2024-05-09T01:34:57.191Z,4.80
2024-05-09T01:36:01.499Z,4.40
2024-05-09T01:37:06.849Z,3.80
2024-05-09T01:38:10.926Z,4.40
2024-05-09T01:39:15.773Z,4.10
2024-05-09T01:40:28.541Z,4.20
2024-05-09T01:41:24.392Z,4.50
2024-05-09T01:42:28.216Z,4.80
2024-05-09T01:43:32.816Z,4.20
2024-05-09T01:44:36.931Z,5.10
2024-05-09T01:45:41.559Z,5.60
2024-05-09T01:46:45.713Z,5.30
2024-05-09T01:47:50.384Z,5.30
2024-05-09T01:48:54.929Z,5.80
2024-05-09T01:49:59.167Z,5.70
2024-05-09T01:51:03.211Z,5.30
2024-05-09T01:52:07.217Z,5.70
2024-05-09T01:53:12.237Z,5.80
2024-05-09T01:54:15.912Z,5.50
2024-05-09T01:55:20.520Z,6.60
2024-05-09T01:56:24.941Z,6.10
2024-05-09T01:57:29.453Z,6.00
2024-05-09T01:58:33.539Z,6.60
2024-05-09T01:59:38.233Z,6.30
2024-05-09T02:00:43.407Z,6.40
2024-05-09T02:01:56.508Z,5.50
2024-05-09T02:02:50.816Z,5.20
2024-05-09T02:03:55.493Z,5.20
2024-05-09T02:04:59.654Z,5.60
2024-05-09T02:06:04.028Z,4.60
2024-05-09T02:07:09.501Z,4.70
2024-05-09T02:08:13.905Z,4.50
2024-05-09T02:09:17.674Z,4.00
2024-05-09T02:10:26.531Z,4.00
2024-05-09T02:11:26.721Z,3.90
2024-05-09T02:12:30.904Z,4.00
2024-05-09T02:13:35.279Z,3.80
2024-05-09T02:14:39.401Z,4.00
2024-05-09T02:15:44.318Z,3.80
2024-05-09T02:16:48.320Z,3.90
2024-05-09T02:17:52.592Z,3.90
2024-05-09T02:18:57.047Z,3.80
2024-05-09T02:20:01.413Z,3.80
2024-05-09T02:21:05.543Z,3.90
2024-05-09T02:22:10.004Z,4.10
2024-05-09T02:23:14.448Z,4.00
2024-05-09T02:24:18.947Z,4.00
2024-05-09T02:25:23.035Z,3.60
2024-05-09T02:26:27.714Z,3.60
2024-05-09T02:27:31.434Z,3.60
2024-05-09T02:28:35.772Z,3.70
2024-05-09T02:29:40.155Z,4.50
2024-05-09T02:30:44.448Z,3.80
2024-05-09T02:31:49.101Z,4.20
2024-05-09T02:32:53.490Z,3.70
2024-05-09T02:33:58.078Z,4.60
2024-05-09T02:35:02.119Z,4.60
2024-05-09T02:36:06.367Z,4.30
2024-05-09T02:37:11.956Z,4.10
2024-05-09T02:38:15.816Z,4.90
2024-05-09T02:39:20.374Z,4.80
2024-05-09T02:40:33.268Z,5.00
2024-05-09T02:41:28.819Z,5.50
2024-05-09T02:42:33.368Z,5.80
2024-05-09T02:43:37.979Z,5.30
2024-05-09T02:44:42.041Z,5.20
2024-05-09T02:45:46.121Z,4.60
2024-05-09T02:46:50.738Z,4.80
2024-05-09T02:47:55.259Z,4.80
2024-05-09T02:48:59.267Z,4.70
2024-05-09T02:50:06.017Z,4.30
2024-05-09T02:51:08.075Z,4.10
2024-05-09T02:52:12.383Z,4.70
2024-05-09T02:53:16.731Z,5.10
2024-05-09T02:54:21.010Z,4.70
2024-05-09T02:55:25.089Z,5.80
2024-05-09T02:56:29.785Z,6.50
2024-05-09T02:57:34.004Z,6.20
2024-05-09T02:58:38.051Z,6.40
2024-05-09T02:59:42.485Z,6.10
2024-05-09T03:00:47.276Z,5.80
2024-05-09T03:01:51.667Z,6.30
2024-05-09T03:02:56.000Z,5.20
2024-05-09T03:04:00.043Z,4.90
2024-05-09T03:05:04.280Z,4.90
2024-05-09T03:06:08.322Z,5.00
2024-05-09T03:07:13.895Z,4.70
2024-05-09T03:08:18.434Z,4.40
2024-05-09T03:09:22.533Z,4.10
2024-05-09T03:10:29.046Z,4.70
2024-05-09T03:11:31.084Z,4.50
2024-05-09T03:12:37.977Z,4.20
2024-05-09T03:13:40.100Z,4.60
2024-05-09T03:14:44.222Z,4.40
2024-05-09T03:15:48.278Z,4.40
2024-05-09T03:16:52.888Z,5.50
2024-05-09T03:17:57.575Z,5.30
2024-05-09T03:19:01.654Z,5.00
2024-05-09T03:20:11.642Z,4.70
2024-05-09T03:21:10.235Z,5.00
2024-05-09T03:22:14.238Z,4.50
2024-05-09T03:23:18.843Z,4.40
2024-05-09T03:24:22.909Z,4.30
2024-05-09T03:25:27.462Z,4.50
2024-05-09T03:26:31.891Z,3.40
2024-05-09T03:27:36.384Z,3.60
2024-05-09T03:28:40.681Z,3.50
2024-05-09T03:29:44.754Z,3.60
2024-05-09T03:30:49.082Z,3.70
2024-05-09T03:31:53.210Z,3.70
2024-05-09T03:32:57.860Z,3.60
2024-05-09T03:34:02.025Z,4.50
2024-05-09T03:35:06.382Z,4.80
2024-05-09T03:36:11.486Z,4.20
2024-05-09T03:37:16.511Z,4.40
2024-05-09T03:38:20.078Z,4.30
2024-05-09T03:39:24.624Z,4.30
2024-05-09T03:40:30.917Z,4.50
2024-05-09T03:41:33.450Z,4.60
2024-05-09T03:42:37.588Z,4.90
2024-05-09T03:43:41.652Z,4.80
2024-05-09T03:44:45.967Z,5.20
2024-05-09T03:45:50.561Z,6.00
2024-05-09T03:46:55.161Z,6.20
2024-05-09T03:47:59.435Z,7.40
2024-05-09T03:49:03.370Z,6.80
2024-05-09T03:50:15.217Z,6.90
2024-05-09T03:51:12.379Z,7.30
2024-05-09T03:52:16.231Z,6.70
2024-05-09T03:53:20.882Z,6.10
2024-05-09T03:54:25.423Z,6.10
2024-05-09T03:55:29.802Z,5.80
2024-05-09T03:56:33.595Z,5.80
2024-05-09T03:57:38.119Z,5.70
2024-05-09T03:58:42.170Z,5.30
2024-05-09T03:59:46.729Z,5.00
2024-05-09T04:00:51.038Z,5.10
2024-05-09T04:01:55.146Z,5.00
2024-05-09T04:02:59.894Z,5.00
2024-05-09T04:04:04.266Z,5.00
2024-05-09T04:05:08.188Z,5.20
2024-05-09T04:06:12.576Z,5.20
2024-05-09T04:07:17.989Z,4.60
2024-05-09T04:08:21.826Z,4.80
2024-05-09T04:09:26.292Z,4.60
2024-05-09T04:10:33.778Z,4.50
2024-05-09T04:11:35.015Z,4.80
2024-05-09T04:12:39.248Z,4.60
2024-05-09T04:13:43.465Z,4.50
2024-05-09T04:14:47.717Z,4.60
2024-05-09T04:15:51.990Z,4.20
2024-05-09T04:16:56.045Z,4.30
2024-05-09T04:18:01.136Z,4.90
2024-05-09T04:19:04.940Z,5.20
2024-05-09T04:20:12.443Z,4.90
2024-05-09T04:21:13.140Z,4.90
2024-05-09T04:22:17.920Z,4.60
2024-05-09T04:23:22.253Z,4.80
2024-05-09T04:24:26.217Z,5.40
2024-05-09T04:25:30.250Z,4.90
2024-05-09T04:26:34.650Z,5.30
2024-05-09T04:27:39.079Z,5.30
2024-05-09T04:28:43.122Z,5.40
2024-05-09T04:29:47.379Z,5.40
2024-05-09T04:30:52.193Z,4.80
2024-05-09T04:31:56.577Z,4.60
2024-05-09T04:33:00.598Z,5.10
2024-05-09T04:34:05.000Z,5.20
2024-05-09T04:35:09.124Z,5.20
2024-05-09T04:36:13.404Z,5.00
2024-05-09T04:37:18.975Z,4.10
2024-05-09T04:38:22.837Z,3.70
2024-05-09T04:39:27.053Z,3.50
2024-05-09T04:40:35.088Z,3.60
2024-05-09T04:41:35.957Z,3.60
2024-05-09T04:42:39.934Z,3.40
2024-05-09T04:43:44.316Z,3.50
2024-05-09T04:44:48.535Z,3.10
2024-05-09T04:45:53.091Z,3.10
2024-05-09T04:46:57.142Z,2.80
2024-05-09T04:48:02.379Z,2.80
2024-05-09T04:49:06.037Z,2.80
2024-05-09T04:50:14.511Z,2.80
2024-05-09T04:51:14.616Z,3.00
2024-05-09T04:52:18.899Z,3.10
2024-05-09T04:53:23.458Z,3.60
2024-05-09T04:54:34.223Z,3.70
2024-05-09T04:55:31.607Z,3.90
2024-05-09T04:56:35.965Z,3.10
2024-05-09T04:57:40.440Z,3.20
2024-05-09T04:58:44.781Z,3.10
2024-05-09T04:59:49.352Z,2.60
2024-05-09T05:00:53.219Z,2.90
2024-05-09T05:01:57.577Z,3.10
2024-05-09T05:03:02.192Z,3.10
2024-05-09T05:04:06.376Z,3.90
2024-05-09T05:05:11.957Z,3.50
2024-05-09T05:06:14.892Z,3.50
2024-05-09T05:07:20.509Z,3.80
2024-05-09T05:08:24.832Z,3.60
2024-05-09T05:09:28.563Z,3.70
2024-05-09T05:10:35.969Z,4.10
2024-05-09T05:11:37.490Z,3.90
2024-05-09T05:12:41.437Z,3.70
2024-05-09T05:13:46.015Z,4.20
2024-05-09T05:14:50.007Z,4.00
2024-05-09T05:15:54.531Z,4.00
2024-05-09T05:16:58.862Z,4.00
2024-05-09T05:18:03.524Z,3.60
2024-05-09T05:19:10.126Z,3.50
2024-05-09T05:20:15.375Z,3.40
2024-05-09T05:21:15.877Z,3.30
2024-05-09T05:22:20.049Z,3.30
2024-05-09T05:23:24.553Z,3.50
2024-05-09T05:24:28.885Z,3.60
2024-05-09T05:25:33.457Z,3.10
2024-05-09T05:26:37.582Z,3.30
2024-05-09T05:27:42.026Z,2.90
2024-05-09T05:28:46.120Z,2.70
2024-05-09T05:29:50.154Z,2.30
2024-05-09T05:30:54.696Z,2.50
2024-05-09T05:31:59.066Z,1.90
2024-05-09T05:33:03.373Z,2.20
2024-05-09T05:34:07.372Z,2.40
2024-05-09T05:35:12.195Z,2.40
2024-05-09T05:36:16.189Z,2.80
2024-05-09T05:37:21.734Z,2.30
2024-05-09T05:38:28.133Z,2.70
2024-05-09T05:39:30.115Z,2.60
2024-05-09T05:40:37.210Z,2.50
2024-05-09T05:41:38.721Z,2.60
2024-05-09T05:42:42.709Z,2.90
2024-05-09T05:43:47.369Z,2.60
2024-05-09T05:44:51.878Z,2.80
2024-05-09T05:45:55.818Z,3.20
2024-05-09T05:46:59.890Z,3.00
2024-05-09T05:48:04.798Z,3.30
2024-05-09T05:49:08.532Z,3.50
2024-05-09T05:50:23.692Z,3.80
2024-05-09T05:51:17.424Z,4.10
2024-05-09T05:52:21.230Z,5.00
2024-05-09T05:53:26.086Z,3.90
2024-05-09T05:54:30.092Z,3.50
2024-05-09T05:55:34.396Z,3.30
2024-05-09T05:56:38.696Z,3.50
2024-05-09T05:57:42.913Z,3.10
2024-05-09T05:58:47.070Z,3.40
2024-05-09T05:59:51.523Z,3.30
2024-05-09T06:00:55.577Z,2.80
2024-05-09T06:01:59.879Z,2.90
2024-05-09T06:03:04.699Z,2.90
2024-05-09T06:04:09.045Z,2.70
2024-05-09T06:05:12.892Z,2.90
2024-05-09T06:06:17.086Z,2.70
2024-05-09T06:07:22.881Z,2.70
2024-05-09T06:08:30.200Z,2.10
2024-05-09T06:09:31.288Z,2.20
2024-05-09T06:10:39.272Z,2.10
2024-05-09T06:11:39.934Z,1.80
2024-05-09T06:12:44.419Z,2.20
2024-05-09T06:13:48.223Z,2.30
2024-05-09T06:14:52.556Z,2.00
2024-05-09T06:15:57.108Z,2.30
2024-05-09T06:17:01.430Z,1.90
2024-05-09T06:18:06.213Z,2.00
2024-05-09T06:19:09.826Z,1.90
2024-05-09T06:20:20.654Z,2.30
2024-05-09T06:21:18.695Z,2.10
2024-05-09T06:22:23.270Z,1.80
2024-05-09T06:23:27.109Z,2.10
2024-05-09T06:24:31.413Z,2.20
2024-05-09T06:25:36.032Z,2.10
2024-05-09T06:26:40.095Z,1.90
2024-05-09T06:27:44.396Z,2.10
2024-05-09T06:28:49.002Z,2.30
2024-05-09T06:29:53.270Z,1.80
2024-05-09T06:30:57.859Z,2.20
2024-05-09T06:32:01.730Z,2.30
2024-05-09T06:33:06.493Z,2.10
2024-05-09T06:34:10.645Z,2.00
2024-05-09T06:35:14.918Z,2.20
2024-05-09T06:36:19.205Z,2.10
2024-05-09T06:37:24.774Z,1.90
2024-05-09T06:38:28.823Z,2.00
2024-05-09T06:39:33.368Z,2.20
2024-05-09T06:40:39.567Z,2.20
2024-05-09T06:41:41.570Z,2.30
2024-05-09T06:42:45.823Z,1.90
2024-05-09T06:43:50.178Z,1.80
2024-05-09T06:44:54.495Z,2.10
2024-05-09T06:45:58.784Z,2.40
2024-05-09T06:47:03.418Z,2.50
2024-05-09T06:48:07.933Z,2.00
2024-05-09T06:49:12.511Z,2.30
2024-05-09T06:50:23.420Z,1.80
2024-05-09T06:51:20.469Z,2.20
2024-05-09T06:52:24.772Z,2.10
2024-05-09T06:53:29.440Z,2.10
2024-05-09T06:54:33.681Z,2.00
2024-05-09T06:55:38.225Z,2.00
2024-05-09T06:56:42.419Z,2.10
2024-05-09T06:57:46.941Z,2.10
2024-05-09T06:58:51.099Z,1.70
2024-05-09T06:59:55.024Z,1.90
2024-05-09T07:00:59.344Z,2.00
2024-05-09T07:02:03.675Z,2.30
2024-05-09T07:03:08.131Z,2.30
2024-05-09T07:04:12.275Z,2.60
2024-05-09T07:05:16.540Z,2.50
2024-05-09T07:06:20.995Z,2.70
2024-05-09T07:07:26.522Z,2.90
2024-05-09T07:08:30.408Z,2.30
2024-05-09T07:09:34.566Z,2.50
2024-05-09T07:10:39.117Z,2.50
2024-05-09T07:11:43.272Z,2.40
2024-05-09T07:12:47.655Z,2.60
2024-05-09T07:13:51.730Z,4.30
2024-05-09T07:14:56.473Z,2.90
2024-05-09T07:16:00.515Z,2.10
2024-05-09T07:17:04.965Z,2.30
2024-05-09T07:18:09.384Z,3.00
2024-05-09T07:19:13.432Z,2.90
2024-05-09T07:20:23.667Z,2.40
2024-05-09T07:21:21.871Z,2.20
2024-05-09T07:22:26.402Z,2.10
2024-05-09T07:23:30.751Z,2.20
2024-05-09T07:24:35.197Z,2.40
2024-05-09T07:25:39.472Z,2.50
2024-05-09T07:26:43.312Z,3.40
2024-05-09T07:27:47.795Z,2.40
2024-05-09T07:28:52.138Z,2.90
2024-05-09T07:29:56.385Z,2.60
2024-05-09T07:31:00.666Z,2.30
2024-05-09T07:32:04.761Z,2.60
2024-05-09T07:33:09.429Z,2.60
2024-05-09T07:34:13.990Z,2.50
2024-05-09T07:35:17.844Z,2.40
2024-05-09T07:36:21.855Z,2.30
2024-05-09T07:37:27.690Z,2.00
2024-05-09T07:38:31.848Z,2.30
2024-05-09T07:39:35.780Z,2.40
2024-05-09T07:40:40.364Z,2.30
2024-05-09T07:41:45.435Z,2.40
2024-05-09T07:42:49.848Z,2.40
2024-05-09T07:43:53.686Z,2.40
2024-05-09T07:45:14.720Z,2.00
2024-05-09T07:46:51.842Z,2.20
2024-05-09T07:48:14.502Z,2.20
2024-05-09T07:49:44.580Z,2.10
2024-05-09T07:53:32.476Z,2.40
2024-05-09T07:53:40.847Z,2.60
2024-05-09T07:54:37.009Z,2.60
2024-05-09T07:55:41.246Z,2.40
2024-05-09T07:56:45.733Z,2.50
2024-05-09T07:57:49.733Z,2.30
2024-05-09T07:58:54.412Z,2.30
2024-05-09T07:59:58.828Z,2.60
2024-05-09T08:01:03.273Z,2.10
2024-05-09T08:02:07.403Z,2.10
2024-05-09T08:03:51.163Z,2.10
2024-05-09T08:04:56.251Z,2.20
2024-05-09T08:06:00.419Z,1.90
2024-05-09T08:07:04.806Z,2.10
2024-05-09T08:08:09.291Z,2.20
2024-05-09T08:09:19.430Z,2.00
2024-05-09T08:10:22.182Z,2.20
2024-05-09T08:11:22.291Z,2.40
2024-05-09T08:12:26.360Z,2.30
2024-05-09T08:13:30.857Z,2.10
2024-05-09T08:14:35.149Z,2.00
2024-05-09T08:15:39.278Z,2.30
2024-05-09T08:16:43.516Z,2.30
2024-05-09T08:17:48.162Z,2.30
2024-05-09T08:18:52.549Z,1.90
2024-05-09T08:19:56.709Z,2.10
2024-05-09T08:21:00.725Z,2.00
2024-05-09T08:22:05.081Z,2.00
2024-05-09T08:23:09.352Z,2.40
2024-05-09T08:24:13.916Z,1.90
2024-05-09T08:25:18.339Z,2.10
2024-05-09T08:26:22.531Z,2.10
2024-05-09T08:27:26.891Z,1.90
2024-05-09T08:28:31.382Z,1.70
2024-05-09T08:29:35.429Z,1.90
2024-05-09T08:30:39.904Z,1.90
2024-05-09T08:31:44.287Z,1.90
2024-05-09T08:32:48.229Z,1.90
2024-05-09T08:33:48.744Z,1.90
2024-05-09T08:34:52.838Z,1.70
2024-05-09T08:35:57.090Z,1.60
2024-05-09T08:37:06.173Z,1.90
2024-05-09T08:38:05.961Z,1.70
2024-05-09T08:39:10.315Z,2.00
2024-05-09T08:40:23.407Z,1.80
2024-05-09T08:41:18.398Z,1.80
2024-05-09T08:42:22.996Z,1.90
2024-05-09T08:43:27.338Z,2.10
2024-05-09T08:44:31.586Z,1.90
2024-05-09T08:45:35.744Z,2.20
2024-05-09T08:46:40.245Z,2.00
2024-05-09T08:47:44.617Z,2.00
2024-05-09T08:48:49.060Z,1.80
2024-05-09T08:49:53.238Z,1.90
2024-05-09T08:50:57.234Z,1.90
2024-05-09T08:52:01.834Z,2.00
2024-05-09T08:53:06.024Z,2.00
2024-05-09T08:54:10.411Z,2.00
2024-05-09T08:55:14.794Z,2.00
2024-05-09T08:56:18.751Z,2.00
2024-05-09T08:57:23.607Z,1.90
2024-05-09T08:58:27.668Z,1.60
2024-05-09T08:59:31.726Z,1.90
2024-05-09T09:00:37.461Z,1.70
2024-05-09T09:01:41.300Z,1.70
2024-05-09T09:02:44.838Z,2.00
2024-05-09T09:03:44.840Z,1.90
2024-05-09T09:04:49.108Z,2.10
2024-05-09T09:05:53.659Z,1.70
2024-05-09T09:06:58.772Z,1.90
2024-05-09T09:08:02.199Z,2.00
2024-05-09T09:09:06.752Z,1.70
2024-05-09T09:10:17.586Z,1.80
2024-05-09T09:11:14.894Z,1.90
2024-05-09T09:12:19.441Z,2.00
2024-05-09T09:13:23.796Z,1.70
2024-05-09T09:14:28.044Z,2.40
2024-05-09T09:15:32.557Z,2.50
2024-05-09T09:16:36.388Z,2.50
2024-05-09T09:17:41.018Z,2.10
2024-05-09T09:18:45.399Z,2.10
2024-05-09T09:19:49.855Z,1.80
2024-05-09T09:20:53.860Z,1.50
2024-05-09T09:21:58.200Z,1.60
2024-05-09T09:23:02.510Z,1.50
2024-05-09T09:24:08.701Z,1.70
2024-05-09T09:25:11.162Z,1.60
2024-05-09T09:26:15.186Z,1.40
2024-05-09T09:27:20.003Z,1.70
2024-05-09T09:28:24.068Z,1.70
2024-05-09T09:29:28.082Z,1.80
2024-05-09T09:30:37.292Z,1.80
2024-05-09T09:31:36.980Z,1.50
2024-05-09T09:32:41.335Z,1.40
2024-05-09T09:33:41.358Z,1.50
2024-05-09T09:34:45.512Z,1.60
2024-05-09T09:35:49.903Z,1.60
2024-05-09T09:36:54.276Z,1.60
2024-05-09T09:37:58.231Z,1.70
2024-05-09T09:39:02.794Z,2.00
2024-05-09T09:40:07.380Z,1.60
2024-05-09T09:41:11.470Z,2.40
2024-05-09T09:42:15.723Z,1.70
2024-05-09T09:43:19.825Z,1.90
2024-05-09T09:44:24.297Z,1.60
2024-05-09T09:45:28.645Z,1.70
2024-05-09T09:46:33.848Z,1.80
2024-05-09T09:47:32.970Z,2.50
2024-05-09T09:48:37.459Z,2.50
2024-05-09T09:49:41.800Z,2.00
2024-05-09T09:50:46.231Z,1.50
2024-05-09T09:51:50.585Z,1.30
2024-05-09T09:52:54.361Z,1.80
2024-05-09T09:53:58.922Z,1.70
2024-05-09T09:55:03.403Z,1.70
2024-05-09T09:56:07.273Z,2.40
2024-05-09T09:57:11.587Z,2.10
2024-05-09T09:58:15.926Z,1.70
2024-05-09T09:59:20.239Z,1.80
2024-05-09T10:00:30.664Z,1.50
2024-05-09T10:01:29.175Z,1.40
2024-05-09T10:02:33.364Z,1.80
2024-05-09T10:03:33.963Z,1.90
2024-05-09T10:04:37.970Z,1.60
2024-05-09T10:05:45.101Z,1.90
2024-05-09T10:06:46.588Z,2.50
2024-05-09T10:07:50.792Z,2.20
2024-05-09T10:08:55.109Z,2.20
2024-05-09T10:09:59.208Z,1.90
2024-05-09T10:11:05.176Z,2.00
2024-05-09T10:12:04.239Z,2.00
2024-05-09T10:13:08.789Z,1.90
2024-05-09T10:14:12.790Z,2.00
2024-05-09T10:15:17.091Z,1.80
2024-05-09T10:16:21.082Z,1.90
2024-05-09T10:17:25.636Z,2.20
2024-05-09T10:18:31.973Z,2.40
2024-05-09T10:19:34.159Z,1.80
2024-05-09T10:20:38.455Z,1.60
2024-05-09T10:21:42.825Z,1.70
2024-05-09T10:22:46.837Z,2.00
2024-05-09T10:23:51.670Z,1.60
2024-05-09T10:24:55.502Z,1.60
2024-05-09T10:26:00.095Z,1.70
2024-05-09T10:27:04.117Z,1.80
2024-05-09T10:28:08.635Z,1.70
2024-05-09T10:29:13.018Z,1.80
2024-05-09T10:30:25.831Z,2.30
2024-05-09T10:31:21.721Z,2.10
2024-05-09T10:32:26.078Z,1.60
2024-05-09T10:33:26.019Z,1.60
2024-05-09T10:34:30.297Z,1.60
2024-05-09T10:35:35.034Z,1.70
2024-05-09T10:36:38.895Z,1.60
2024-05-09T10:37:43.430Z,1.50
2024-05-09T10:38:47.750Z,1.60
2024-05-09T10:39:51.820Z,1.70
2024-05-09T10:40:56.377Z,1.70
2024-05-09T10:42:00.719Z,1.70
2024-05-09T10:43:06.450Z,1.90
2024-05-09T10:44:09.595Z,2.10
2024-05-09T10:45:13.659Z,1.90
2024-05-09T10:46:17.878Z,1.90
2024-05-09T10:47:22.316Z,2.00
2024-05-09T10:48:26.700Z,1.60
2024-05-09T10:49:30.793Z,1.80
2024-05-09T10:50:35.107Z,2.00
2024-05-09T10:51:39.390Z,2.30
2024-05-09T10:52:43.887Z,1.90
2024-05-09T10:53:48.607Z,1.70
2024-05-09T10:54:52.886Z,1.90
2024-05-09T10:55:56.828Z,1.50
2024-05-09T10:57:01.171Z,1.70
2024-05-09T10:58:05.287Z,1.70
2024-05-09T10:59:09.534Z,1.80
2024-05-09T11:00:19.472Z,1.70
2024-05-09T11:01:18.486Z,1.50
2024-05-09T11:02:22.964Z,1.70
2024-05-09T11:03:23.110Z,1.50
2024-05-09T11:04:27.096Z,2.30
2024-05-09T11:05:31.702Z,2.60
2024-05-09T11:06:35.678Z,1.90
2024-05-09T11:07:39.888Z,1.60
2024-05-09T11:08:44.472Z,1.80
2024-05-09T11:09:48.817Z,1.60
2024-05-09T11:10:53.384Z,1.60
2024-05-09T11:11:57.190Z,1.50
2024-05-09T11:13:01.540Z,1.70
2024-05-09T11:14:06.058Z,1.90
2024-05-09T11:15:10.378Z,1.70
2024-05-09T11:16:14.496Z,1.40
2024-05-09T11:17:19.113Z,1.50
2024-05-09T11:18:24.949Z,1.40
2024-05-09T11:19:27.779Z,1.60
2024-05-09T11:20:34.751Z,1.50
2024-05-09T11:21:36.019Z,1.50
2024-05-09T11:22:40.375Z,1.50
2024-05-09T11:23:45.153Z,1.60
2024-05-09T11:24:49.120Z,1.50
2024-05-09T11:25:53.306Z,1.70
2024-05-09T11:26:57.870Z,1.70
2024-05-09T11:28:02.344Z,1.50
2024-05-09T11:29:06.240Z,1.40
2024-05-09T11:30:17.257Z,1.80
2024-05-09T11:31:14.919Z,1.60
2024-05-09T11:32:19.515Z,1.50
2024-05-09T11:33:19.951Z,1.50
2024-05-09T11:34:23.960Z,1.70
2024-05-09T11:35:28.477Z,1.70
2024-05-09T11:36:32.349Z,2.10
2024-05-09T11:40:34.165Z,1.60
2024-05-09T11:41:34.253Z,1.70
2024-05-09T11:42:38.334Z,1.50
2024-05-09T11:43:42.873Z,1.30
2024-05-09T11:44:46.937Z,1.20
2024-05-09T11:45:51.543Z,1.20
2024-05-09T11:46:55.811Z,1.30
2024-05-09T11:47:59.995Z,0.90
2024-05-09T11:49:04.644Z,1.00
2024-05-09T11:50:12.988Z,1.20
2024-05-09T11:51:13.108Z,1.00
2024-05-09T11:52:17.211Z,1.00
2024-05-09T11:53:21.739Z,1.10
2024-05-09T11:54:25.784Z,1.00
2024-05-09T11:55:30.759Z,1.20
2024-05-09T11:56:34.431Z,1.30
2024-05-09T11:57:39.074Z,1.30
2024-05-09T11:58:43.065Z,1.20
2024-05-09T11:59:47.390Z,1.30
2024-05-09T12:00:52.078Z,1.20
2024-05-09T12:01:56.382Z,1.40
2024-05-09T12:03:00.372Z,1.20
2024-05-09T12:04:05.488Z,1.20
2024-05-09T12:05:09.386Z,1.10
2024-05-09T12:06:13.301Z,1.00
2024-05-09T12:07:18.006Z,1.10
2024-05-09T12:08:22.158Z,0.90
2024-05-09T12:09:25.973Z,1.00
2024-05-09T12:10:32.862Z,1.10
2024-05-09T12:11:30.940Z,0.80
2024-05-09T12:12:37.256Z,0.70
2024-05-09T12:13:39.252Z,0.80
2024-05-09T12:14:43.836Z,0.70
2024-05-09T12:15:48.396Z,0.80
2024-05-09T12:16:52.765Z,0.90
2024-05-09T12:19:00.928Z,0.90
2024-05-09T12:20:09.151Z,1.00
2024-05-09T12:21:09.696Z,1.00
2024-05-09T12:22:14.593Z,1.00
2024-05-09T12:23:18.336Z,1.00
2024-05-09T12:24:23.189Z,0.80
2024-05-09T12:25:27.242Z,0.80
2024-05-09T12:26:31.574Z,0.80
2024-05-09T12:27:35.646Z,0.90
2024-05-09T12:28:39.957Z,0.80
2024-05-09T12:29:44.529Z,0.80
2024-05-09T12:30:48.905Z,0.80
2024-05-09T12:31:54.111Z,0.80
2024-05-09T12:32:53.285Z,0.80
2024-05-09T12:33:57.374Z,1.00
2024-05-09T12:35:01.904Z,1.00
2024-05-09T12:36:06.239Z,0.80
2024-05-09T12:37:10.821Z,0.90
2024-05-09T12:38:15.441Z,1.10
2024-05-09T12:39:19.235Z,0.90
2024-05-09T12:40:26.759Z,1.00
2024-05-09T12:41:23.353Z,0.80
2024-05-09T12:42:29.093Z,0.80
2024-05-09T12:43:32.306Z,0.90
2024-05-09T12:44:36.339Z,0.90
2024-05-09T12:45:40.331Z,0.80
2024-05-09T12:46:45.248Z,1.00
2024-05-09T12:47:49.987Z,0.90
2024-05-09T12:48:54.631Z,0.90
2024-05-09T12:49:57.893Z,0.80
2024-05-09T12:51:02.486Z,0.90
2024-05-09T12:52:06.878Z,0.80
2024-05-09T12:53:11.136Z,0.80
2024-05-09T12:54:15.170Z,0.70
2024-05-09T12:55:19.511Z,0.90
2024-05-09T12:56:23.756Z,0.90
2024-05-09T12:57:28.686Z,0.80
2024-05-09T12:58:32.604Z,0.80
2024-05-09T12:59:36.655Z,0.90
2024-05-09T13:00:41.027Z,0.90
2024-05-09T13:01:45.535Z,0.80
2024-05-09T13:02:49.798Z,0.60
2024-05-09T13:03:54.195Z,1.20
2024-05-09T13:04:58.450Z,0.70
2024-05-09T13:06:02.673Z,0.70
2024-05-09T13:07:08.047Z,0.60
2024-05-09T13:08:11.243Z,1.00
2024-05-09T13:09:15.286Z,0.70
2024-05-09T13:10:23.097Z,0.80
2024-05-09T13:11:19.703Z,0.80
2024-05-09T13:12:24.401Z,0.70
2024-05-09T13:13:28.412Z,0.70
2024-05-09T13:14:32.670Z,0.70
2024-05-09T13:15:36.772Z,0.80
2024-05-09T13:16:41.373Z,0.80
2024-05-09T13:17:45.482Z,1.20
2024-05-09T13:18:50.397Z,0.70
2024-05-09T13:19:54.086Z,1.50
2024-05-09T13:20:58.355Z,1.10
2024-05-09T13:22:02.679Z,1.00
2024-05-09T13:23:07.924Z,0.90
2024-05-09T13:24:11.194Z,1.20
2024-05-09T13:25:15.307Z,1.00
2024-05-09T13:26:19.766Z,1.50
2024-05-09T13:27:24.311Z,1.00
2024-05-09T13:28:28.651Z,0.70
2024-05-09T13:29:32.446Z,0.80
2024-05-09T13:30:41.095Z,0.70
2024-05-09T13:31:41.306Z,2.00
2024-05-09T13:32:45.731Z,1.50
2024-05-09T13:33:49.764Z,1.20
2024-05-09T13:34:54.016Z,1.70
2024-05-09T13:35:58.609Z,1.30
2024-05-09T13:37:02.883Z,1.30
2024-05-09T13:38:07.459Z,1.20
2024-05-09T13:39:11.512Z,1.00
2024-05-09T13:40:14.242Z,0.70
2024-05-09T13:41:15.687Z,0.90
2024-05-09T13:42:19.998Z,0.80
2024-05-09T13:43:24.552Z,0.90
2024-05-09T13:44:28.919Z,0.70
2024-05-09T13:45:33.323Z,0.80
2024-05-09T13:46:37.311Z,0.90
2024-05-09T13:47:41.989Z,0.80
2024-05-09T13:48:46.359Z,0.80
2024-05-09T13:49:50.541Z,0.80
2024-05-09T13:50:54.583Z,0.80
2024-05-09T13:51:58.921Z,0.90
2024-05-09T13:53:03.568Z,0.90
2024-05-09T13:54:07.509Z,0.90
2024-05-09T13:55:12.067Z,0.90
2024-05-09T13:56:16.410Z,0.70
2024-05-09T13:57:20.465Z,0.90
2024-05-09T13:58:25.065Z,0.80
2024-05-09T13:59:29.116Z,0.80
2024-05-09T14:00:43.622Z,0.70
2024-05-09T14:01:38.058Z,0.80
2024-05-09T14:02:42.268Z,1.00
2024-05-09T14:03:46.579Z,0.80
2024-05-09T14:04:51.094Z,0.90
2024-05-09T14:05:55.265Z,0.80
2024-05-09T14:06:59.658Z,0.90
2024-05-09T14:08:04.415Z,0.90
2024-05-09T14:09:08.446Z,0.80
2024-05-09T14:10:19.477Z,0.80
2024-05-09T14:11:12.725Z,0.80
2024-05-09T14:12:17.065Z,0.90
2024-05-09T14:13:21.452Z,0.90
2024-05-09T14:14:25.904Z,0.90
2024-05-09T14:15:30.358Z,0.90
2024-05-09T14:16:34.622Z,1.00
2024-05-09T14:17:38.939Z,1.00
2024-05-09T14:18:43.460Z,0.90
2024-05-09T14:19:47.757Z,0.80
2024-05-09T14:20:51.583Z,0.80
2024-05-09T14:21:55.952Z,0.80
2024-05-09T14:23:01.059Z,0.80